sensor_id;sensor_type;location;lat;lon;timestamp;temperature;humidity
14877;DHT22;69691;48.172;17.070;2023-06-05T00:02:19;18.60;81.20
14877;DHT22;69691;48.172;17.070;2023-06-05T00:04:45;18.60;80.80
14877;DHT22;69691;48.172;17.070;2023-06-05T00:07:11;18.60;80.50
14877;DHT22;69691;48.172;17.070;2023-06-05T00:09:37;18.60;80.60
14877;DHT22;69691;48.172;17.070;2023-06-05T00:12:03;18.60;80.50
14877;DHT22;69691;48.172;17.070;2023-06-05T00:14:29;18.60;80.50
14877;DHT22;69691;48.172;17.070;2023-06-05T00:16:55;18.60;80.50
14877;DHT22;69691;48.172;17.070;2023-06-05T00:19:23;18.60;80.70
14877;DHT22;69691;48.172;17.070;2023-06-05T00:21:48;18.60;80.90
14877;DHT22;69691;48.172;17.070;2023-06-05T00:24:16;18.50;80.90
14877;DHT22;69691;48.172;17.070;2023-06-05T00:26:42;18.60;81.20
14877;DHT22;69691;48.172;17.070;2023-06-05T00:29:07;18.50;81.50
14877;DHT22;69691;48.172;17.070;2023-06-05T00:31:33;18.50;81.50
14877;DHT22;69691;48.172;17.070;2023-06-05T00:33:59;18.50;81.60
14877;DHT22;69691;48.172;17.070;2023-06-05T00:36:25;18.40;81.50
14877;DHT22;69691;48.172;17.070;2023-06-05T00:38:53;18.40;81.60
14877;DHT22;69691;48.172;17.070;2023-06-05T00:41:20;18.40;81.50
14877;DHT22;69691;48.172;17.070;2023-06-05T00:43:46;18.40;81.20
14877;DHT22;69691;48.172;17.070;2023-06-05T00:46:12;18.30;81.80
14877;DHT22;69691;48.172;17.070;2023-06-05T00:48:40;18.30;81.60
14877;DHT22;69691;48.172;17.070;2023-06-05T00:51:06;18.40;81.00
14877;DHT22;69691;48.172;17.070;2023-06-05T00:53:34;18.40;80.90
14877;DHT22;69691;48.172;17.070;2023-06-05T00:56:02;18.40;81.00
14877;DHT22;69691;48.172;17.070;2023-06-05T00:58:29;18.40;80.90
14877;DHT22;69691;48.172;17.070;2023-06-05T01:00:57;18.30;80.80
14877;DHT22;69691;48.172;17.070;2023-06-05T01:03:23;18.30;80.20
14877;DHT22;69691;48.172;17.070;2023-06-05T01:05:50;18.40;80.00
14877;DHT22;69691;48.172;17.070;2023-06-05T01:08:17;18.40;79.70
14877;DHT22;69691;48.172;17.070;2023-06-05T01:10:46;18.40;79.80
14877;DHT22;69691;48.172;17.070;2023-06-05T01:13:22;18.40;79.90
14877;DHT22;69691;48.172;17.070;2023-06-05T01:15:50;18.40;80.20
14877;DHT22;69691;48.172;17.070;2023-06-05T01:18:18;18.40;80.90
14877;DHT22;69691;48.172;17.070;2023-06-05T01:20:44;18.40;81.00
14877;DHT22;69691;48.172;17.070;2023-06-05T01:23:10;18.40;81.40
14877;DHT22;69691;48.172;17.070;2023-06-05T01:25:36;18.40;81.60
14877;DHT22;69691;48.172;17.070;2023-06-05T01:31:03;18.40;82.50
14877;DHT22;69691;48.172;17.070;2023-06-05T01:33:44;18.40;83.50
14877;DHT22;69691;48.172;17.070;2023-06-05T01:36:15;18.40;83.30
14877;DHT22;69691;48.172;17.070;2023-06-05T01:38:43;18.40;83.70
14877;DHT22;69691;48.172;17.070;2023-06-05T01:41:11;18.30;83.70
14877;DHT22;69691;48.172;17.070;2023-06-05T01:43:38;18.30;83.80
14877;DHT22;69691;48.172;17.070;2023-06-05T01:46:05;18.30;83.80
14877;DHT22;69691;48.172;17.070;2023-06-05T01:48:33;18.30;84.00
14877;DHT22;69691;48.172;17.070;2023-06-05T01:51:00;18.30;84.40
14877;DHT22;69691;48.172;17.070;2023-06-05T01:53:29;18.20;84.50
14877;DHT22;69691;48.172;17.070;2023-06-05T01:55:55;18.20;84.50
14877;DHT22;69691;48.172;17.070;2023-06-05T01:58:23;18.20;84.80
14877;DHT22;69691;48.172;17.070;2023-06-05T02:00:50;18.20;84.80
14877;DHT22;69691;48.172;17.070;2023-06-05T02:03:18;18.20;84.80
14877;DHT22;69691;48.172;17.070;2023-06-05T02:05:45;18.10;84.80
14877;DHT22;69691;48.172;17.070;2023-06-05T02:08:10;18.20;84.60
14877;DHT22;69691;48.172;17.070;2023-06-05T02:10:37;18.10;84.20
14877;DHT22;69691;48.172;17.070;2023-06-05T02:13:06;18.10;84.30
14877;DHT22;69691;48.172;17.070;2023-06-05T02:15:32;18.10;84.50
14877;DHT22;69691;48.172;17.070;2023-06-05T02:18:00;18.10;85.20
14877;DHT22;69691;48.172;17.070;2023-06-05T02:20:29;18.10;85.30
14877;DHT22;69691;48.172;17.070;2023-06-05T02:22:55;18.00;85.60
14877;DHT22;69691;48.172;17.070;2023-06-05T02:25:21;18.00;86.10
14877;DHT22;69691;48.172;17.070;2023-06-05T02:27:51;18.00;87.10
14877;DHT22;69691;48.172;17.070;2023-06-05T02:30:17;18.00;86.60
14877;DHT22;69691;48.172;17.070;2023-06-05T02:32:43;18.00;86.40
14877;DHT22;69691;48.172;17.070;2023-06-05T02:35:13;17.90;85.90
14877;DHT22;69691;48.172;17.070;2023-06-05T02:37:41;18.00;86.10
14877;DHT22;69691;48.172;17.070;2023-06-05T02:40:12;17.90;85.60
14877;DHT22;69691;48.172;17.070;2023-06-05T02:42:39;17.90;85.90
14877;DHT22;69691;48.172;17.070;2023-06-05T02:45:07;17.90;85.80
14877;DHT22;69691;48.172;17.070;2023-06-05T02:47:34;18.00;85.50
14877;DHT22;69691;48.172;17.070;2023-06-05T02:50:01;17.90;85.90
14877;DHT22;69691;48.172;17.070;2023-06-05T02:52:30;17.90;85.30
14877;DHT22;69691;48.172;17.070;2023-06-05T02:55:02;17.90;85.20
14877;DHT22;69691;48.172;17.070;2023-06-05T02:57:31;17.80;84.90
14877;DHT22;69691;48.172;17.070;2023-06-05T02:59:59;17.80;84.60
14877;DHT22;69691;48.172;17.070;2023-06-05T03:02:28;17.90;84.90
14877;DHT22;69691;48.172;17.070;2023-06-05T03:04:54;17.90;84.00
14877;DHT22;69691;48.172;17.070;2023-06-05T03:07:24;17.90;84.00
14877;DHT22;69691;48.172;17.070;2023-06-05T03:09:50;17.90;83.50
14877;DHT22;69691;48.172;17.070;2023-06-05T03:12:16;17.90;83.10
14877;DHT22;69691;48.172;17.070;2023-06-05T03:14:42;17.90;83.10
14877;DHT22;69691;48.172;17.070;2023-06-05T03:17:08;17.90;82.80
14877;DHT22;69691;48.172;17.070;2023-06-05T03:19:35;18.00;82.40
14877;DHT22;69691;48.172;17.070;2023-06-05T03:22:02;18.00;82.30
14877;DHT22;69691;48.172;17.070;2023-06-05T03:24:30;18.00;81.30
14877;DHT22;69691;48.172;17.070;2023-06-05T03:27:02;17.90;81.00
14877;DHT22;69691;48.172;17.070;2023-06-05T03:29:30;18.00;80.70
14877;DHT22;69691;48.172;17.070;2023-06-05T03:31:56;18.00;80.30
14877;DHT22;69691;48.172;17.070;2023-06-05T03:34:22;17.90;80.10
14877;DHT22;69691;48.172;17.070;2023-06-05T03:36:53;18.00;79.70
14877;DHT22;69691;48.172;17.070;2023-06-05T03:39:19;18.00;79.60
14877;DHT22;69691;48.172;17.070;2023-06-05T03:41:46;18.00;79.30
14877;DHT22;69691;48.172;17.070;2023-06-05T03:44:12;18.00;79.20
14877;DHT22;69691;48.172;17.070;2023-06-05T03:46:37;18.10;78.80
14877;DHT22;69691;48.172;17.070;2023-06-05T03:49:04;18.20;78.50
14877;DHT22;69691;48.172;17.070;2023-06-05T03:51:35;18.20;78.00
14877;DHT22;69691;48.172;17.070;2023-06-05T03:54:02;18.20;77.80
14877;DHT22;69691;48.172;17.070;2023-06-05T03:56:29;18.10;78.00
14877;DHT22;69691;48.172;17.070;2023-06-05T03:59:02;18.20;78.10
14877;DHT22;69691;48.172;17.070;2023-06-05T04:01:35;18.20;77.80
14877;DHT22;69691;48.172;17.070;2023-06-05T04:04:04;18.20;77.90
14877;DHT22;69691;48.172;17.070;2023-06-05T04:06:34;18.20;78.10
14877;DHT22;69691;48.172;17.070;2023-06-05T04:09:01;18.20;78.50
14877;DHT22;69691;48.172;17.070;2023-06-05T04:11:27;18.30;79.10
14877;DHT22;69691;48.172;17.070;2023-06-05T04:13:56;18.40;79.10
14877;DHT22;69691;48.172;17.070;2023-06-05T04:16:21;18.40;78.90
14877;DHT22;69691;48.172;17.070;2023-06-05T04:18:48;18.40;78.70
14877;DHT22;69691;48.172;17.070;2023-06-05T04:21:13;18.40;79.10
14877;DHT22;69691;48.172;17.070;2023-06-05T04:23:39;18.50;79.40
14877;DHT22;69691;48.172;17.070;2023-06-05T04:26:05;18.50;79.10
14877;DHT22;69691;48.172;17.070;2023-06-05T04:28:32;18.50;80.00
14877;DHT22;69691;48.172;17.070;2023-06-05T04:30:58;18.50;79.40
14877;DHT22;69691;48.172;17.070;2023-06-05T04:33:24;18.60;79.40
14877;DHT22;69691;48.172;17.070;2023-06-05T04:35:50;18.60;79.40
14877;DHT22;69691;48.172;17.070;2023-06-05T04:38:18;18.60;79.50
14877;DHT22;69691;48.172;17.070;2023-06-05T04:40:47;18.60;80.00
14877;DHT22;69691;48.172;17.070;2023-06-05T04:43:14;18.60;79.70
14877;DHT22;69691;48.172;17.070;2023-06-05T04:45:40;18.50;80.30
14877;DHT22;69691;48.172;17.070;2023-06-05T04:48:08;18.60;80.70
14877;DHT22;69691;48.172;17.070;2023-06-05T04:50:34;18.60;80.90
14877;DHT22;69691;48.172;17.070;2023-06-05T04:53:05;18.60;80.80
14877;DHT22;69691;48.172;17.070;2023-06-05T04:55:32;18.60;81.60
14877;DHT22;69691;48.172;17.070;2023-06-05T04:57:59;18.60;81.50
14877;DHT22;69691;48.172;17.070;2023-06-05T05:00:28;18.60;82.20
14877;DHT22;69691;48.172;17.070;2023-06-05T05:02:54;18.70;81.90
14877;DHT22;69691;48.172;17.070;2023-06-05T05:05:20;18.80;81.70
14877;DHT22;69691;48.172;17.070;2023-06-05T05:07:48;18.80;82.40
14877;DHT22;69691;48.172;17.070;2023-06-05T05:10:15;18.80;83.50
14877;DHT22;69691;48.172;17.070;2023-06-05T05:12:41;18.80;83.00
14877;DHT22;69691;48.172;17.070;2023-06-05T05:15:07;18.90;82.40
14877;DHT22;69691;48.172;17.070;2023-06-05T05:17:34;18.90;82.60
14877;DHT22;69691;48.172;17.070;2023-06-05T05:20:00;18.90;83.90
14877;DHT22;69691;48.172;17.070;2023-06-05T05:22:28;19.00;83.90
14877;DHT22;69691;48.172;17.070;2023-06-05T05:24:55;19.10;84.20
14877;DHT22;69691;48.172;17.070;2023-06-05T05:27:21;19.20;82.90
14877;DHT22;69691;48.172;17.070;2023-06-05T05:29:48;19.30;82.60
14877;DHT22;69691;48.172;17.070;2023-06-05T05:32:13;19.30;82.50
14877;DHT22;69691;48.172;17.070;2023-06-05T05:34:40;19.40;82.50
14877;DHT22;69691;48.172;17.070;2023-06-05T05:37:06;19.50;83.70
14877;DHT22;69691;48.172;17.070;2023-06-05T05:39:31;19.50;82.10
14877;DHT22;69691;48.172;17.070;2023-06-05T05:41:58;19.60;82.70
14877;DHT22;69691;48.172;17.070;2023-06-05T05:44:27;19.60;82.50
14877;DHT22;69691;48.172;17.070;2023-06-05T05:46:53;19.90;82.50
14877;DHT22;69691;48.172;17.070;2023-06-05T05:49:19;20.10;81.60
14877;DHT22;69691;48.172;17.070;2023-06-05T05:51:45;20.10;81.00
14877;DHT22;69691;48.172;17.070;2023-06-05T05:54:10;20.00;82.30
14877;DHT22;69691;48.172;17.070;2023-06-05T05:56:36;20.00;82.90
14877;DHT22;69691;48.172;17.070;2023-06-05T05:59:03;19.80;83.30
14877;DHT22;69691;48.172;17.070;2023-06-05T06:01:29;19.60;84.60
14877;DHT22;69691;48.172;17.070;2023-06-05T06:03:55;19.50;85.30
14877;DHT22;69691;48.172;17.070;2023-06-05T06:06:22;19.40;86.30
14877;DHT22;69691;48.172;17.070;2023-06-05T06:08:48;19.30;87.50
14877;DHT22;69691;48.172;17.070;2023-06-05T06:11:13;19.20;87.30
14877;DHT22;69691;48.172;17.070;2023-06-05T06:13:40;19.20;88.30
14877;DHT22;69691;48.172;17.070;2023-06-05T06:16:07;19.20;88.40
14877;DHT22;69691;48.172;17.070;2023-06-05T06:18:32;19.20;89.00
14877;DHT22;69691;48.172;17.070;2023-06-05T06:20:58;19.10;89.30
14877;DHT22;69691;48.172;17.070;2023-06-05T06:23:24;19.20;90.00
14877;DHT22;69691;48.172;17.070;2023-06-05T06:25:50;19.30;90.00
14877;DHT22;69691;48.172;17.070;2023-06-05T06:28:17;19.40;90.30
14877;DHT22;69691;48.172;17.070;2023-06-05T06:30:45;19.40;88.50
14877;DHT22;69691;48.172;17.070;2023-06-05T06:33:11;19.30;88.50
14877;DHT22;69691;48.172;17.070;2023-06-05T06:35:36;19.30;89.10
14877;DHT22;69691;48.172;17.070;2023-06-05T06:38:03;19.30;89.60
14877;DHT22;69691;48.172;17.070;2023-06-05T06:40:28;19.20;88.60
14877;DHT22;69691;48.172;17.070;2023-06-05T06:42:54;19.10;89.50
14877;DHT22;69691;48.172;17.070;2023-06-05T06:45:31;19.10;89.30
14877;DHT22;69691;48.172;17.070;2023-06-05T06:47:58;19.00;89.80
14877;DHT22;69691;48.172;17.070;2023-06-05T06:50:23;19.00;88.80
14877;DHT22;69691;48.172;17.070;2023-06-05T06:52:49;19.00;88.90
14877;DHT22;69691;48.172;17.070;2023-06-05T06:55:16;19.10;88.60
14877;DHT22;69691;48.172;17.070;2023-06-05T06:57:43;19.10;88.50
14877;DHT22;69691;48.172;17.070;2023-06-05T07:00:09;19.10;87.60
14877;DHT22;69691;48.172;17.070;2023-06-05T07:02:36;19.10;87.90
14877;DHT22;69691;48.172;17.070;2023-06-05T07:05:03;19.00;88.30
14877;DHT22;69691;48.172;17.070;2023-06-05T07:07:32;18.90;88.20
14877;DHT22;69691;48.172;17.070;2023-06-05T07:09:57;18.90;89.80
14877;DHT22;69691;48.172;17.070;2023-06-05T07:12:23;19.00;89.30
14877;DHT22;69691;48.172;17.070;2023-06-05T07:14:49;19.00;88.10
14877;DHT22;69691;48.172;17.070;2023-06-05T07:17:15;19.00;88.20
14877;DHT22;69691;48.172;17.070;2023-06-05T07:19:41;19.10;89.40
14877;DHT22;69691;48.172;17.070;2023-06-05T07:22:07;19.10;88.60
14877;DHT22;69691;48.172;17.070;2023-06-05T07:24:34;19.20;88.50
14877;DHT22;69691;48.172;17.070;2023-06-05T07:27:02;19.20;88.40
14877;DHT22;69691;48.172;17.070;2023-06-05T07:29:29;19.40;87.40
14877;DHT22;69691;48.172;17.070;2023-06-05T07:31:56;19.50;87.20
14877;DHT22;69691;48.172;17.070;2023-06-05T07:34:25;19.60;87.00
14877;DHT22;69691;48.172;17.070;2023-06-05T07:36:51;19.90;86.80
14877;DHT22;69691;48.172;17.070;2023-06-05T07:39:22;20.20;85.70
14877;DHT22;69691;48.172;17.070;2023-06-05T07:41:48;20.40;84.50
14877;DHT22;69691;48.172;17.070;2023-06-05T07:44:16;20.60;83.40
14877;DHT22;69691;48.172;17.070;2023-06-05T07:46:44;20.80;83.40
14877;DHT22;69691;48.172;17.070;2023-06-05T07:49:10;20.90;82.60
14877;DHT22;69691;48.172;17.070;2023-06-05T07:51:37;20.90;81.60
14877;DHT22;69691;48.172;17.070;2023-06-05T07:54:07;21.10;82.40
14877;DHT22;69691;48.172;17.070;2023-06-05T07:56:35;21.40;81.00
14877;DHT22;69691;48.172;17.070;2023-06-05T07:59:03;21.60;78.60
14877;DHT22;69691;48.172;17.070;2023-06-05T08:01:30;21.70;78.20
14877;DHT22;69691;48.172;17.070;2023-06-05T08:03:57;21.90;78.50
14877;DHT22;69691;48.172;17.070;2023-06-05T08:06:24;22.00;77.60
14877;DHT22;69691;48.172;17.070;2023-06-05T08:08:50;22.30;76.90
14877;DHT22;69691;48.172;17.070;2023-06-05T08:11:17;22.50;75.90
14877;DHT22;69691;48.172;17.070;2023-06-05T08:13:43;22.80;74.70
14877;DHT22;69691;48.172;17.070;2023-06-05T08:16:08;22.90;73.30
14877;DHT22;69691;48.172;17.070;2023-06-05T08:18:34;23.10;73.70
14877;DHT22;69691;48.172;17.070;2023-06-05T08:21:02;23.20;72.20
14877;DHT22;69691;48.172;17.070;2023-06-05T08:23:28;23.40;72.00
14877;DHT22;69691;48.172;17.070;2023-06-05T08:25:54;23.60;71.60
14877;DHT22;69691;48.172;17.070;2023-06-05T08:28:20;23.60;70.00
14877;DHT22;69691;48.172;17.070;2023-06-05T08:30:47;23.80;71.10
14877;DHT22;69691;48.172;17.070;2023-06-05T08:33:14;24.00;68.60
14877;DHT22;69691;48.172;17.070;2023-06-05T08:35:40;24.10;68.00
14877;DHT22;69691;48.172;17.070;2023-06-05T08:38:07;24.10;67.90
14877;DHT22;69691;48.172;17.070;2023-06-05T08:40:34;24.10;67.30
14877;DHT22;69691;48.172;17.070;2023-06-05T08:43:02;24.10;67.10
14877;DHT22;69691;48.172;17.070;2023-06-05T08:45:30;24.00;66.80
14877;DHT22;69691;48.172;17.070;2023-06-05T08:47:59;24.00;67.40
14877;DHT22;69691;48.172;17.070;2023-06-05T08:50:29;23.90;67.00
14877;DHT22;69691;48.172;17.070;2023-06-05T08:52:59;24.00;67.20
14877;DHT22;69691;48.172;17.070;2023-06-05T08:55:29;24.00;65.90
14877;DHT22;69691;48.172;17.070;2023-06-05T08:57:55;24.10;66.00
14877;DHT22;69691;48.172;17.070;2023-06-05T09:00:21;24.30;66.20
14877;DHT22;69691;48.172;17.070;2023-06-05T09:02:48;24.50;64.60
14877;DHT22;69691;48.172;17.070;2023-06-05T09:05:14;24.60;63.90
14877;DHT22;69691;48.172;17.070;2023-06-05T09:07:41;25.20;63.60
14877;DHT22;69691;48.172;17.070;2023-06-05T09:10:24;25.90;61.30
14877;DHT22;69691;48.172;17.070;2023-06-05T09:12:56;26.50;59.50
14877;DHT22;69691;48.172;17.070;2023-06-05T09:15:31;26.60;57.70
14877;DHT22;69691;48.172;17.070;2023-06-05T09:20:43;25.90;57.20
14877;DHT22;69691;48.172;17.070;2023-06-05T09:23:27;25.70;58.20
14877;DHT22;69691;48.172;17.070;2023-06-05T09:25:58;25.90;58.70
14877;DHT22;69691;48.172;17.070;2023-06-05T09:28:27;26.00;57.70
14877;DHT22;69691;48.172;17.070;2023-06-05T09:30:53;26.30;58.20
14877;DHT22;69691;48.172;17.070;2023-06-05T09:33:30;26.80;57.60
14877;DHT22;69691;48.172;17.070;2023-06-05T09:36:11;27.20;55.90
14877;DHT22;69691;48.172;17.070;2023-06-05T09:38:39;27.20;55.20
14877;DHT22;69691;48.172;17.070;2023-06-05T09:41:07;26.90;55.00
14877;DHT22;69691;48.172;17.070;2023-06-05T09:43:35;26.50;55.90
14877;DHT22;69691;48.172;17.070;2023-06-05T09:46:10;26.10;57.00
14877;DHT22;69691;48.172;17.070;2023-06-05T09:48:38;26.00;57.50
14877;DHT22;69691;48.172;17.070;2023-06-05T09:51:12;25.80;57.30
14877;DHT22;69691;48.172;17.070;2023-06-05T09:53:44;25.50;58.00
14877;DHT22;69691;48.172;17.070;2023-06-05T09:56:18;25.50;58.50
14877;DHT22;69691;48.172;17.070;2023-06-05T09:58:48;25.60;58.90
14877;DHT22;69691;48.172;17.070;2023-06-05T10:01:19;25.70;58.70
14877;DHT22;69691;48.172;17.070;2023-06-05T10:03:57;25.90;57.60
14877;DHT22;69691;48.172;17.070;2023-06-05T10:06:27;26.00;57.70
14877;DHT22;69691;48.172;17.070;2023-06-05T10:08:54;26.00;57.10
14877;DHT22;69691;48.172;17.070;2023-06-05T10:11:23;25.80;56.80
14877;DHT22;69691;48.172;17.070;2023-06-05T10:13:50;25.60;58.00
14877;DHT22;69691;48.172;17.070;2023-06-05T10:16:18;25.60;56.90
14877;DHT22;69691;48.172;17.070;2023-06-05T10:18:48;25.60;57.00
14877;DHT22;69691;48.172;17.070;2023-06-05T10:21:15;25.50;57.90
14877;DHT22;69691;48.172;17.070;2023-06-05T10:23:45;25.50;56.80
14877;DHT22;69691;48.172;17.070;2023-06-05T10:38:21;25.60;56.50
14877;DHT22;69691;48.172;17.070;2023-06-05T10:40:54;25.20;57.20
14877;DHT22;69691;48.172;17.070;2023-06-05T10:46:20;24.90;58.40
14877;DHT22;69691;48.172;17.070;2023-06-05T10:51:45;25.00;58.50
14877;DHT22;69691;48.172;17.070;2023-06-05T10:59:37;25.10;58.40
14877;DHT22;69691;48.172;17.070;2023-06-05T11:07:27;25.40;58.10
14877;DHT22;69691;48.172;17.070;2023-06-05T11:10:06;25.40;58.00
14877;DHT22;69691;48.172;17.070;2023-06-05T11:17:42;25.60;57.80
14877;DHT22;69691;48.172;17.070;2023-06-05T11:27:49;26.60;55.60
14877;DHT22;69691;48.172;17.070;2023-06-05T11:30:28;26.90;55.30
14877;DHT22;69691;48.172;17.070;2023-06-05T11:33:06;26.90;54.70
14877;DHT22;69691;48.172;17.070;2023-06-05T11:35:41;27.00;55.10
14877;DHT22;69691;48.172;17.070;2023-06-05T11:38:16;27.10;54.70
14877;DHT22;69691;48.172;17.070;2023-06-05T11:40:45;27.10;54.70
14877;DHT22;69691;48.172;17.070;2023-06-05T11:43:12;27.00;55.40
14877;DHT22;69691;48.172;17.070;2023-06-05T11:45:40;26.70;55.30
14877;DHT22;69691;48.172;17.070;2023-06-05T11:48:08;26.60;55.80
14877;DHT22;69691;48.172;17.070;2023-06-05T11:50:59;26.60;56.20
14877;DHT22;69691;48.172;17.070;2023-06-05T11:53:27;26.40;56.30
14877;DHT22;69691;48.172;17.070;2023-06-05T11:55:55;26.40;57.00
14877;DHT22;69691;48.172;17.070;2023-06-05T11:58:35;26.40;56.70
14877;DHT22;69691;48.172;17.070;2023-06-05T12:01:15;26.20;56.00
14877;DHT22;69691;48.172;17.070;2023-06-05T12:03:49;26.20;56.70
14877;DHT22;69691;48.172;17.070;2023-06-05T12:06:28;26.40;56.70
14877;DHT22;69691;48.172;17.070;2023-06-05T12:09:07;26.70;56.50
14877;DHT22;69691;48.172;17.070;2023-06-05T12:11:36;26.70;56.70
14877;DHT22;69691;48.172;17.070;2023-06-05T12:14:04;26.70;57.10
14877;DHT22;69691;48.172;17.070;2023-06-05T12:16:34;27.10;56.50
14877;DHT22;69691;48.172;17.070;2023-06-05T12:19:01;27.40;55.50
14877;DHT22;69691;48.172;17.070;2023-06-05T12:21:28;27.70;55.30
14877;DHT22;69691;48.172;17.070;2023-06-05T12:24:03;28.10;53.90
14877;DHT22;69691;48.172;17.070;2023-06-05T12:26:49;28.30;52.80
14877;DHT22;69691;48.172;17.070;2023-06-05T12:29:20;28.50;51.90
14877;DHT22;69691;48.172;17.070;2023-06-05T12:31:48;28.40;51.50
14877;DHT22;69691;48.172;17.070;2023-06-05T12:34:14;28.60;51.90
14877;DHT22;69691;48.172;17.070;2023-06-05T12:36:42;28.60;51.70
14877;DHT22;69691;48.172;17.070;2023-06-05T12:39:13;28.70;51.20
14877;DHT22;69691;48.172;17.070;2023-06-05T12:41:40;28.80;51.10
14877;DHT22;69691;48.172;17.070;2023-06-05T12:44:06;28.50;51.20
14877;DHT22;69691;48.172;17.070;2023-06-05T12:46:34;28.60;51.40
14877;DHT22;69691;48.172;17.070;2023-06-05T12:49:03;28.60;51.40
14877;DHT22;69691;48.172;17.070;2023-06-05T12:51:31;28.50;51.40
14877;DHT22;69691;48.172;17.070;2023-06-05T12:53:57;28.50;51.60
14877;DHT22;69691;48.172;17.070;2023-06-05T12:56:24;28.80;51.70
14877;DHT22;69691;48.172;17.070;2023-06-05T12:58:56;29.00;51.40
14877;DHT22;69691;48.172;17.070;2023-06-05T13:01:23;29.10;51.00
14877;DHT22;69691;48.172;17.070;2023-06-05T13:03:51;29.00;50.70
14877;DHT22;69691;48.172;17.070;2023-06-05T13:06:18;28.70;51.00
14877;DHT22;69691;48.172;17.070;2023-06-05T13:08:44;28.60;51.40
14877;DHT22;69691;48.172;17.070;2023-06-05T13:11:12;28.50;52.20
14877;DHT22;69691;48.172;17.070;2023-06-05T13:13:39;28.30;52.70
14877;DHT22;69691;48.172;17.070;2023-06-05T13:16:05;28.30;52.20
14877;DHT22;69691;48.172;17.070;2023-06-05T13:18:33;28.10;52.80
14877;DHT22;69691;48.172;17.070;2023-06-05T13:20:59;28.20;52.90
14877;DHT22;69691;48.172;17.070;2023-06-05T13:23:25;28.30;52.50
14877;DHT22;69691;48.172;17.070;2023-06-05T13:25:52;28.20;52.40
14877;DHT22;69691;48.172;17.070;2023-06-05T13:28:18;28.20;53.00
14877;DHT22;69691;48.172;17.070;2023-06-05T13:30:44;28.10;52.70
14877;DHT22;69691;48.172;17.070;2023-06-05T13:33:10;28.10;53.10
14877;DHT22;69691;48.172;17.070;2023-06-05T13:35:36;28.30;53.20
14877;DHT22;69691;48.172;17.070;2023-06-05T13:38:02;28.30;52.10
14877;DHT22;69691;48.172;17.070;2023-06-05T13:40:28;28.10;52.00
14877;DHT22;69691;48.172;17.070;2023-06-05T13:42:56;28.10;52.50
14877;DHT22;69691;48.172;17.070;2023-06-05T13:45:22;28.10;52.10
14877;DHT22;69691;48.172;17.070;2023-06-05T13:47:48;28.20;51.80
14877;DHT22;69691;48.172;17.070;2023-06-05T13:50:14;28.30;51.30
14877;DHT22;69691;48.172;17.070;2023-06-05T13:52:40;28.20;50.80
14877;DHT22;69691;48.172;17.070;2023-06-05T13:55:06;28.00;51.20
14877;DHT22;69691;48.172;17.070;2023-06-05T13:57:32;28.10;51.40
14877;DHT22;69691;48.172;17.070;2023-06-05T13:59:58;28.20;50.90
14877;DHT22;69691;48.172;17.070;2023-06-05T14:02:24;28.10;51.10
14877;DHT22;69691;48.172;17.070;2023-06-05T14:04:50;28.00;51.50
14877;DHT22;69691;48.172;17.070;2023-06-05T14:07:15;27.80;51.90
14877;DHT22;69691;48.172;17.070;2023-06-05T14:09:41;27.80;52.20
14877;DHT22;69691;48.172;17.070;2023-06-05T14:12:07;27.70;52.70
14877;DHT22;69691;48.172;17.070;2023-06-05T14:14:35;27.60;53.00
14877;DHT22;69691;48.172;17.070;2023-06-05T14:17:01;27.40;53.70
14877;DHT22;69691;48.172;17.070;2023-06-05T14:19:27;27.30;54.10
14877;DHT22;69691;48.172;17.070;2023-06-05T14:21:53;27.40;54.40
14877;DHT22;69691;48.172;17.070;2023-06-05T14:24:19;27.30;54.30
14877;DHT22;69691;48.172;17.070;2023-06-05T14:26:45;27.20;54.60
14877;DHT22;69691;48.172;17.070;2023-06-05T14:29:12;27.10;54.80
14877;DHT22;69691;48.172;17.070;2023-06-05T14:31:37;27.10;55.10
14877;DHT22;69691;48.172;17.070;2023-06-05T14:34:03;26.90;54.90
14877;DHT22;69691;48.172;17.070;2023-06-05T14:36:29;26.70;54.80
14877;DHT22;69691;48.172;17.070;2023-06-05T14:38:55;26.70;54.30
14877;DHT22;69691;48.172;17.070;2023-06-05T14:41:21;26.40;54.10
14877;DHT22;69691;48.172;17.070;2023-06-05T14:43:46;26.20;54.20
14877;DHT22;69691;48.172;17.070;2023-06-05T14:46:12;26.20;54.20
14877;DHT22;69691;48.172;17.070;2023-06-05T14:48:39;26.20;54.20
14877;DHT22;69691;48.172;17.070;2023-06-05T14:51:07;26.30;54.30
14877;DHT22;69691;48.172;17.070;2023-06-05T14:53:33;26.20;54.40
14877;DHT22;69691;48.172;17.070;2023-06-05T14:55:59;26.20;54.90
14877;DHT22;69691;48.172;17.070;2023-06-05T14:58:25;26.20;55.40
14877;DHT22;69691;48.172;17.070;2023-06-05T15:00:50;26.20;55.70
14877;DHT22;69691;48.172;17.070;2023-06-05T15:03:16;26.20;56.60
14877;DHT22;69691;48.172;17.070;2023-06-05T15:05:43;26.10;57.90
14877;DHT22;69691;48.172;17.070;2023-06-05T15:08:09;26.00;59.50
14877;DHT22;69691;48.172;17.070;2023-06-05T15:10:36;25.90;59.50
14877;DHT22;69691;48.172;17.070;2023-06-05T15:13:01;25.70;61.30
14877;DHT22;69691;48.172;17.070;2023-06-05T15:15:28;25.40;64.20
14877;DHT22;69691;48.172;17.070;2023-06-05T15:17:53;25.20;66.10
14877;DHT22;69691;48.172;17.070;2023-06-05T15:20:20;24.90;69.20
14877;DHT22;69691;48.172;17.070;2023-06-05T15:22:46;24.70;71.30
14877;DHT22;69691;48.172;17.070;2023-06-05T15:25:12;24.40;73.40
14877;DHT22;69691;48.172;17.070;2023-06-05T15:27:38;24.10;74.90
14877;DHT22;69691;48.172;17.070;2023-06-05T15:30:05;23.80;75.30
14877;DHT22;69691;48.172;17.070;2023-06-05T15:32:32;23.70;77.70
14877;DHT22;69691;48.172;17.070;2023-06-05T15:34:58;23.50;79.20
14877;DHT22;69691;48.172;17.070;2023-06-05T15:37:24;23.30;81.00
14877;DHT22;69691;48.172;17.070;2023-06-05T15:39:51;23.20;82.60
14877;DHT22;69691;48.172;17.070;2023-06-05T15:42:28;23.00;83.10
14877;DHT22;69691;48.172;17.070;2023-06-05T15:47:38;22.70;84.90
14877;DHT22;69691;48.172;17.070;2023-06-05T15:50:05;22.60;84.80
14877;DHT22;69691;48.172;17.070;2023-06-05T15:52:32;22.60;86.00
14877;DHT22;69691;48.172;17.070;2023-06-05T15:54:59;22.50;86.90
14877;DHT22;69691;48.172;17.070;2023-06-05T15:57:25;22.40;88.30
14877;DHT22;69691;48.172;17.070;2023-06-05T15:59:52;22.30;89.70
14877;DHT22;69691;48.172;17.070;2023-06-05T16:02:19;22.20;90.00
14877;DHT22;69691;48.172;17.070;2023-06-05T16:04:46;22.10;89.90
14877;DHT22;69691;48.172;17.070;2023-06-05T16:11:55;22.00;89.20
14877;DHT22;69691;48.172;17.070;2023-06-05T16:15:17;21.80;90.90